Hovedside
METAR-TAF:

METAR-TAF

Lufthavner :

Ørsta-Volda, Norge

Ørsta/Volda lufthamn

breddegrad: 62-11N, lengdegrad: 006-04E, høyde over havet: 7 m

Gjeldene værobservasjon

Denne rapporten ble laget for 43 minutter siden, klokken 13:50 UTC
Vind 5 kt fra skiftende retning
Temperatur 2°C
Luftfuktighet 75%
Trykk 987 hPa
Sikt 10 km eller mer
Få skyer i en høyde av 2200 ft
Spredte skyer i en høyde av 3400 ft
Brutte skyer i en høyde av 3800 ft
lett snø

METAR: ENOV 221350Z VRB05KT 9999 -SN FEW022 SCT034 BKN038 02/M02 Q0987 RMK WIND 2175FT 12021KT

Tid: 15:33 (14:33 UTC)


TAF: fraværende

Værobservasjoner og værvarsel for over 4000 flyplasser (METAR- og TAF-rapporter).

Tilgjengelige stasjoner er representert av de røde og gule prikkene på kartet.

Hold musepekeren over prikken for å se navnet på stasjonen.

Klikk så for å se værobservasjoner og -varsler.

For å forandre kartet kan du klikke på den grønne knappen med svart kryss for å zoome inn, på den grønne knappen med strek for å zoome ut, eller på de grønne pilene for å se tilstøtende kart.


METAR-TAF: